createdAt,value
2018-04-07T00:01:27.494Z,6.67
2018-04-07T00:03:55.039Z,6.10
2018-04-07T00:06:22.563Z,6.30
2018-04-07T00:08:50.100Z,6.57
2018-04-07T00:11:17.628Z,6.97
2018-04-07T00:13:45.178Z,6.97
2018-04-07T00:16:12.703Z,5.97
2018-04-07T00:18:40.262Z,6.70
2018-04-07T00:21:07.794Z,6.63
2018-04-07T00:23:35.338Z,6.90
2018-04-07T00:26:03.629Z,6.87
2018-04-07T00:28:31.190Z,6.60
2018-04-07T00:30:58.710Z,7.07
2018-04-07T00:33:26.242Z,5.97
2018-04-07T00:35:53.761Z,7.00
2018-04-07T00:38:21.303Z,6.83
2018-04-07T00:40:49.591Z,6.37
2018-04-07T00:43:17.130Z,6.57
2018-04-07T00:45:44.649Z,7.03
2018-04-07T00:48:12.188Z,6.80
2018-04-07T00:50:39.709Z,6.83
2018-04-07T00:53:08.018Z,7.07
2018-04-07T00:55:35.541Z,6.10
2018-04-07T00:58:03.901Z,6.53
2018-04-07T01:00:31.413Z,6.50
2018-04-07T01:02:58.966Z,6.30
2018-04-07T01:05:26.497Z,6.53
2018-04-07T01:07:54.801Z,6.73
2018-04-07T01:10:22.320Z,6.40
2018-04-07T01:12:49.861Z,6.00
2018-04-07T01:15:17.377Z,6.30
2018-04-07T01:17:44.973Z,5.63
2018-04-07T01:20:12.500Z,6.30
2018-04-07T01:22:40.037Z,6.47
2018-04-07T01:25:07.552Z,6.17
2018-04-07T01:27:35.094Z,6.27
2018-04-07T01:30:02.614Z,6.23
2018-04-07T01:32:30.167Z,5.73
2018-04-07T01:34:57.692Z,6.33
2018-04-07T01:37:25.218Z,6.27
2018-04-07T01:39:52.761Z,6.53
2018-04-07T01:42:20.281Z,6.30
2018-04-07T01:44:48.586Z,6.67
2018-04-07T01:47:16.104Z,5.40
2018-04-07T01:49:43.639Z,5.83
2018-04-07T01:52:11.153Z,6.17
2018-04-07T01:54:38.698Z,6.03
2018-04-07T01:57:06.977Z,6.00
2018-04-07T01:59:35.287Z,6.47
2018-04-07T02:02:02.825Z,6.10
2018-04-07T02:04:30.360Z,6.80
2018-04-07T02:06:58.647Z,6.70
2018-04-07T02:09:26.955Z,5.60
2018-04-07T02:11:54.487Z,6.10
2018-04-07T02:14:22.047Z,6.10
2018-04-07T02:16:49.571Z,6.07
2018-04-07T02:19:17.109Z,6.50
2018-04-07T02:21:44.626Z,6.53
2018-04-07T02:24:12.168Z,6.57
2018-04-07T02:26:40.454Z,6.40
2018-04-07T02:29:08.003Z,6.43
2018-04-07T02:31:36.285Z,6.03
2018-04-07T02:34:03.837Z,5.83
2018-04-07T02:36:32.128Z,6.37
2018-04-07T02:38:59.678Z,5.50
2018-04-07T02:41:27.953Z,5.47
2018-04-07T02:43:56.260Z,5.37
2018-04-07T02:46:23.791Z,5.33
2018-04-07T02:48:51.332Z,5.67
2018-04-07T02:51:19.637Z,6.13
2018-04-07T02:53:47.167Z,5.07
2018-04-07T02:56:15.470Z,4.70
2018-04-07T02:58:43.022Z,5.13
2018-04-07T03:01:10.555Z,5.90
2018-04-07T03:03:38.883Z,6.03
2018-04-07T03:06:06.402Z,5.57
2018-04-07T03:08:34.708Z,5.50
2018-04-07T03:11:02.231Z,5.73
2018-04-07T03:13:30.533Z,5.00
2018-04-07T03:15:58.067Z,5.50
2018-04-07T03:18:26.373Z,5.93
2018-04-07T03:20:53.902Z,5.30
2018-04-07T03:23:22.229Z,5.93
2018-04-07T03:25:49.742Z,5.87
2018-04-07T03:28:18.045Z,5.13
2018-04-07T03:30:45.563Z,5.60
2018-04-07T03:33:13.878Z,5.60
2018-04-07T03:35:41.395Z,5.30
2018-04-07T03:38:09.690Z,5.33
2018-04-07T03:40:37.200Z,5.50
2018-04-07T03:43:04.736Z,5.20
2018-04-07T03:45:32.268Z,4.97
2018-04-07T03:47:59.785Z,5.33
2018-04-07T03:50:27.325Z,4.90
2018-04-07T03:52:54.833Z,4.73
2018-04-07T03:55:22.373Z,5.30
2018-04-07T03:57:49.893Z,5.87
2018-04-07T04:00:17.436Z,5.57
2018-04-07T04:02:44.952Z,5.50
2018-04-07T04:05:14.109Z,5.63
2018-04-07T04:07:41.629Z,5.93
2018-04-07T04:10:09.166Z,5.57
2018-04-07T04:12:37.450Z,5.40
2018-04-07T04:15:05.752Z,6.77
2018-04-07T04:17:33.274Z,5.30
2018-04-07T04:20:01.586Z,5.83
2018-04-07T04:22:29.866Z,4.90
2018-04-07T04:24:57.415Z,5.37
2018-04-07T04:27:24.962Z,5.50
2018-04-07T04:29:52.494Z,5.47
2018-04-07T04:32:20.009Z,5.13
2018-04-07T04:34:48.308Z,4.87
2018-04-07T04:37:15.831Z,5.73
2018-04-07T04:39:43.367Z,5.70
2018-04-07T04:42:10.899Z,5.47
2018-04-07T04:44:38.433Z,5.57
2018-04-07T04:47:05.957Z,5.30
2018-04-07T04:49:33.494Z,4.93
2018-04-07T04:52:01.777Z,5.30
2018-04-07T04:54:29.309Z,5.67
2018-04-07T04:56:56.834Z,5.50
2018-04-07T04:59:24.366Z,5.10
2018-04-07T05:01:51.890Z,4.77
2018-04-07T05:04:20.200Z,5.40
2018-04-07T05:06:47.722Z,5.03
2018-04-07T05:09:16.031Z,4.63
2018-04-07T05:11:43.586Z,5.23
2018-04-07T05:14:11.113Z,4.77
2018-04-07T05:16:39.405Z,5.37
2018-04-07T05:19:07.697Z,4.57
2018-04-07T05:21:35.217Z,5.27
2018-04-07T05:24:02.758Z,5.33
2018-04-07T05:26:30.274Z,4.53
2018-04-07T05:28:57.812Z,4.50
2018-04-07T05:31:26.101Z,5.30
2018-04-07T05:33:53.639Z,4.57
2018-04-07T05:36:21.921Z,4.73
2018-04-07T05:38:50.225Z,5.00
2018-04-07T05:41:17.750Z,5.70
2018-04-07T05:43:46.033Z,5.03
2018-04-07T05:46:14.339Z,4.60
2018-04-07T05:48:41.859Z,4.33
2018-04-07T05:51:10.167Z,4.67
2018-04-07T05:53:37.687Z,4.00
2018-04-07T05:56:06.034Z,3.87
2018-04-07T05:58:33.548Z,4.03
2018-04-07T06:01:01.125Z,4.00
2018-04-07T06:03:28.637Z,4.10
2018-04-07T06:05:56.942Z,3.90
2018-04-07T06:08:24.457Z,3.63
2018-04-07T06:10:51.986Z,3.90
2018-04-07T06:13:19.507Z,4.20
2018-04-07T06:15:47.050Z,3.60
2018-04-07T06:18:15.340Z,4.87
2018-04-07T06:20:42.885Z,4.00
2018-04-07T06:23:11.169Z,4.27
2018-04-07T06:25:39.473Z,3.90
2018-04-07T06:28:06.998Z,3.80
2018-04-07T06:30:35.310Z,3.78
2018-04-07T06:33:02.826Z,4.53
2018-04-07T06:35:31.134Z,3.95
2018-04-07T06:37:58.657Z,4.00
2018-04-07T06:40:26.965Z,3.83
2018-04-07T06:42:54.489Z,4.40
2018-04-07T06:45:22.802Z,3.83
2018-04-07T06:47:50.327Z,3.90
2018-04-07T06:50:18.636Z,3.65
2018-04-07T06:52:46.198Z,4.37
2018-04-07T06:55:13.733Z,3.97
2018-04-07T06:57:41.272Z,3.92
2018-04-07T07:00:09.581Z,4.00
2018-04-07T07:02:37.106Z,3.65
2018-04-07T07:05:05.438Z,4.07
2018-04-07T07:07:32.961Z,3.72
2018-04-07T07:10:01.265Z,4.53
2018-04-07T07:12:28.782Z,4.25
2018-04-07T07:14:57.080Z,3.47
2018-04-07T07:17:24.593Z,3.37
2018-04-07T07:19:52.129Z,3.40
2018-04-07T07:22:19.649Z,3.15
2018-04-07T07:24:47.194Z,4.00
2018-04-07T07:27:15.480Z,3.75
2018-04-07T07:29:43.023Z,3.33
2018-04-07T07:32:11.308Z,4.07
2018-04-07T07:34:38.859Z,3.37
2018-04-07T07:37:07.225Z,4.43
2018-04-07T07:39:34.762Z,3.62
2018-04-07T07:42:02.355Z,3.70
2018-04-07T07:44:29.834Z,3.37
2018-04-07T07:46:57.384Z,3.42
2018-04-07T07:49:24.915Z,3.70
2018-04-07T07:51:52.462Z,3.92
2018-04-07T07:54:19.986Z,3.50
2018-04-07T07:56:47.533Z,3.65
2018-04-07T07:59:15.069Z,3.87
2018-04-07T08:01:43.368Z,3.28
2018-04-07T08:04:10.895Z,3.15
2018-04-07T08:06:39.219Z,3.28
2018-04-07T08:09:06.742Z,3.78
2018-04-07T08:11:34.285Z,3.35
2018-04-07T08:14:02.567Z,3.28
2018-04-07T08:16:30.875Z,3.58
2018-04-07T08:18:58.397Z,3.30
2018-04-07T08:21:26.710Z,3.10
2018-04-07T08:23:54.232Z,3.45
2018-04-07T08:26:22.537Z,3.65
2018-04-07T08:28:50.049Z,3.65
2018-04-07T08:31:17.592Z,3.53
2018-04-07T08:33:45.117Z,3.55
2018-04-07T08:36:12.659Z,3.67
2018-04-07T08:38:40.189Z,5.47
2018-04-07T08:41:08.615Z,3.60
2018-04-07T08:43:36.033Z,3.97
2018-04-07T08:46:04.349Z,3.40
2018-04-07T08:48:31.868Z,3.60
2018-04-07T08:51:00.183Z,3.87
2018-04-07T08:53:27.760Z,3.12
2018-04-07T08:55:55.333Z,3.60
2018-04-07T08:58:22.834Z,4.20
2018-04-07T09:00:50.391Z,3.95
2018-04-07T09:03:17.924Z,3.30
2018-04-07T09:05:45.474Z,3.67
2018-04-07T09:08:12.993Z,3.70
2018-04-07T09:10:40.533Z,3.53
2018-04-07T09:13:08.061Z,4.07
2018-04-07T09:15:36.364Z,3.50
2018-04-07T09:18:03.897Z,4.22
2018-04-07T09:20:32.212Z,4.10
2018-04-07T09:22:59.747Z,4.22
2018-04-07T09:25:28.074Z,4.03
2018-04-07T09:27:55.593Z,3.72
2018-04-07T09:30:23.138Z,3.90
2018-04-07T09:32:51.425Z,3.95
2018-04-07T09:35:18.973Z,3.67
2018-04-07T09:37:46.505Z,3.33
2018-04-07T09:40:14.055Z,3.70
2018-04-07T09:42:41.572Z,3.60
2018-04-07T09:45:09.100Z,3.53
2018-04-07T09:47:37.406Z,4.50
2018-04-07T09:50:04.929Z,3.80
2018-04-07T09:52:33.242Z,3.72
2018-04-07T09:55:00.770Z,3.70
2018-04-07T09:57:29.073Z,3.83
2018-04-07T09:59:56.598Z,3.75
2018-04-07T10:02:24.151Z,3.60
2018-04-07T10:04:52.447Z,3.70
2018-04-07T10:07:20.002Z,4.12
2018-04-07T10:09:47.540Z,3.67
2018-04-07T10:12:15.091Z,3.58
2018-04-07T10:14:42.619Z,3.58
2018-04-07T10:17:10.169Z,3.58
2018-04-07T10:19:37.709Z,3.95
2018-04-07T10:22:05.308Z,3.35
2018-04-07T10:24:32.825Z,3.83
2018-04-07T10:27:00.394Z,3.55
2018-04-07T10:29:27.929Z,3.90
2018-04-07T10:31:55.498Z,3.72
2018-04-07T10:34:23.026Z,3.75
2018-04-07T10:36:51.340Z,3.55
2018-04-07T10:39:18.868Z,3.60
2018-04-07T10:41:47.186Z,3.62
2018-04-07T10:44:14.726Z,3.20
2018-04-07T10:46:42.277Z,4.18
2018-04-07T10:49:09.810Z,3.90
2018-04-07T10:51:38.130Z,3.60
2018-04-07T10:54:05.654Z,3.58
2018-04-07T10:56:33.966Z,3.53
2018-04-07T10:59:01.490Z,3.20
2018-04-07T11:01:29.803Z,2.95
2018-04-07T11:03:57.338Z,3.80
2018-04-07T11:06:24.881Z,3.45
2018-04-07T11:08:53.168Z,3.47
2018-04-07T11:11:20.792Z,3.87
2018-04-07T11:13:48.291Z,3.58
2018-04-07T11:16:15.844Z,3.62
2018-04-07T11:18:43.377Z,3.75
2018-04-07T11:21:10.929Z,3.17
2018-04-07T11:23:38.453Z,3.12
2018-04-07T11:26:06.009Z,3.62
2018-04-07T11:28:33.546Z,3.25
2018-04-07T11:31:01.097Z,3.25
2018-04-07T11:33:28.626Z,3.45
2018-04-07T11:35:57.036Z,3.80
2018-04-07T11:38:24.564Z,3.53
2018-04-07T11:40:52.090Z,3.42
2018-04-07T11:43:19.634Z,3.83
2018-04-07T11:45:47.175Z,3.95
2018-04-07T11:48:14.736Z,3.70
2018-04-07T11:50:42.270Z,3.42
2018-04-07T11:53:09.833Z,3.25
2018-04-07T11:55:37.373Z,3.30
2018-04-07T11:58:04.914Z,3.30
2018-04-07T12:00:32.438Z,3.72
2018-04-07T12:03:00.216Z,4.05
2018-04-07T12:05:27.781Z,3.55
2018-04-07T12:07:55.337Z,3.22
2018-04-07T12:10:22.861Z,3.47
2018-04-07T12:12:50.412Z,4.20
2018-04-07T12:15:17.937Z,3.70
2018-04-07T12:17:45.490Z,3.37
2018-04-07T12:20:13.059Z,3.40
2018-04-07T12:22:40.637Z,3.62
2018-04-07T12:25:08.923Z,3.92
2018-04-07T12:27:36.470Z,3.55
2018-04-07T12:30:04.761Z,3.80
2018-04-07T12:32:32.309Z,3.78
2018-04-07T12:35:00.601Z,4.10
2018-04-07T12:37:28.166Z,3.92
2018-04-07T12:39:55.702Z,3.75
2018-04-07T12:42:23.250Z,3.83
2018-04-07T12:44:51.545Z,4.25
2018-04-07T12:47:19.088Z,3.72
2018-04-07T12:49:46.621Z,3.50
2018-04-07T12:52:14.170Z,4.10
2018-04-07T12:54:41.703Z,4.50
2018-04-07T12:57:09.361Z,3.85
2018-04-07T12:59:36.908Z,5.20
2018-04-07T13:02:04.455Z,4.45
2018-04-07T13:04:32.418Z,3.83
2018-04-07T13:07:00.057Z,4.30
2018-04-07T13:09:27.564Z,4.47
2018-04-07T13:11:55.105Z,3.67
2018-04-07T13:14:22.639Z,3.58
2018-04-07T13:16:50.986Z,4.05
2018-04-07T13:19:18.696Z,3.87
2018-04-07T13:21:46.269Z,3.75
2018-04-07T13:24:13.802Z,3.50
2018-04-07T13:26:42.114Z,3.83
2018-04-07T13:29:09.643Z,3.37
2018-04-07T13:31:37.979Z,4.10
2018-04-07T13:34:05.521Z,3.22
2018-04-07T13:36:33.043Z,3.83
2018-04-07T13:39:00.589Z,3.53
2018-04-07T13:41:28.932Z,4.20
2018-04-07T13:43:56.476Z,3.85
2018-04-07T13:46:23.996Z,3.70
2018-04-07T13:48:51.544Z,3.75
2018-04-07T13:51:19.839Z,3.62
2018-04-07T13:53:47.394Z,3.28
2018-04-07T13:56:14.930Z,3.20
2018-04-07T13:58:43.250Z,3.53
2018-04-07T14:01:10.777Z,3.62
2018-04-07T14:03:38.330Z,3.87
2018-04-07T14:06:06.628Z,4.00
2018-04-07T14:08:34.177Z,3.45
2018-04-07T14:11:01.710Z,3.90
2018-04-07T14:13:30.029Z,2.78
2018-04-07T14:15:57.551Z,3.00
2018-04-07T14:18:25.859Z,2.97
2018-04-07T14:20:53.385Z,2.80
2018-04-07T14:23:21.694Z,2.60
2018-04-07T14:25:49.220Z,3.30
2018-04-07T14:28:16.804Z,2.60
2018-04-07T14:30:44.325Z,2.75
2018-04-07T14:33:12.628Z,2.90
2018-04-07T14:35:40.153Z,3.22
2018-04-07T14:38:07.692Z,2.87
2018-04-07T14:40:35.221Z,2.90
2018-04-07T14:43:02.764Z,2.67
2018-04-07T14:45:30.293Z,2.40
2018-04-07T14:47:58.601Z,3.25
2018-04-07T14:50:26.120Z,2.70
2018-04-07T14:52:53.668Z,2.92
2018-04-07T14:55:21.202Z,2.65
2018-04-07T14:57:48.742Z,2.90
2018-04-07T15:00:16.269Z,2.90
2018-04-07T15:02:44.578Z,3.00
2018-04-07T15:05:12.109Z,2.30
2018-04-07T15:07:40.421Z,2.85
2018-04-07T15:10:07.946Z,2.97
2018-04-07T15:12:36.256Z,2.92
2018-04-07T15:15:03.780Z,2.97
2018-04-07T15:17:31.332Z,2.35
2018-04-07T15:19:59.625Z,2.33
2018-04-07T15:22:27.179Z,2.75
2018-04-07T15:24:54.709Z,2.58
2018-04-07T15:27:22.249Z,2.45
2018-04-07T15:29:49.788Z,2.97
2018-04-07T15:32:17.328Z,2.67
2018-04-07T15:34:44.857Z,2.78
2018-04-07T15:37:13.144Z,2.50
2018-04-07T15:39:40.704Z,2.25
2018-04-07T15:42:08.237Z,2.70
2018-04-07T15:44:35.781Z,2.58
2018-04-07T15:47:03.314Z,3.03
2018-04-07T15:49:30.872Z,2.90
2018-04-07T15:51:58.410Z,2.47
2018-04-07T15:54:25.976Z,2.80
2018-04-07T15:56:53.497Z,3.00
2018-04-07T15:59:21.892Z,3.25
2018-04-07T16:01:49.350Z,2.80
2018-04-07T16:04:16.901Z,3.30
2018-04-07T16:06:44.426Z,2.80
2018-04-07T16:09:11.969Z,2.97
2018-04-07T16:11:39.487Z,3.40
2018-04-07T16:14:07.035Z,3.37
2018-04-07T16:16:34.562Z,3.97
2018-04-07T16:19:02.110Z,3.05
2018-04-07T16:21:29.634Z,4.22
2018-04-07T16:23:57.180Z,3.22
2018-04-07T16:26:24.699Z,3.97
2018-04-07T16:28:52.244Z,4.18
2018-04-07T16:31:19.761Z,3.15
2018-04-07T16:33:47.305Z,3.50
2018-04-07T16:36:14.833Z,3.47
2018-04-07T16:38:43.154Z,3.78
2018-04-07T16:41:10.689Z,3.22
2018-04-07T16:43:38.229Z,2.70
2018-04-07T16:46:05.762Z,4.18
2018-04-07T16:48:33.309Z,4.65
2018-04-07T16:51:00.834Z,3.62
2018-04-07T16:53:28.367Z,3.10
2018-04-07T16:55:56.681Z,3.15
2018-04-07T16:58:24.208Z,3.75
2018-04-07T17:00:52.517Z,3.47
2018-04-07T17:03:20.113Z,3.70
2018-04-07T17:05:47.656Z,3.62
2018-04-07T17:08:15.177Z,4.80
2018-04-07T17:10:42.716Z,3.40
2018-04-07T17:13:10.244Z,3.28
2018-04-07T17:15:37.798Z,3.67
2018-04-07T17:18:05.333Z,3.00
2018-04-07T17:20:32.884Z,3.55
2018-04-07T17:23:00.543Z,3.80
2018-04-07T17:25:28.080Z,3.20
2018-04-07T17:27:55.604Z,3.12
2018-04-07T17:30:23.151Z,3.22
2018-04-07T17:32:50.679Z,3.30
2018-04-07T17:35:18.317Z,3.47
2018-04-07T17:37:45.852Z,3.72
2018-04-07T17:40:14.309Z,9.30
2018-04-07T17:42:41.850Z,8.02
2018-04-07T17:45:09.392Z,5.62
2018-04-07T17:47:36.923Z,5.45
2018-04-07T17:50:04.470Z,7.05
2018-04-07T17:52:32.808Z,6.53
2018-04-07T17:55:00.352Z,10.90
2018-04-07T17:57:27.958Z,15.27
2018-04-07T17:59:56.279Z,12.37
2018-04-07T18:02:23.817Z,7.55
2018-04-07T18:04:51.357Z,4.60
2018-04-07T18:07:19.704Z,5.10
2018-04-07T18:09:47.236Z,4.45
2018-04-07T18:12:14.761Z,2.45
2018-04-07T18:14:43.190Z,2.10
2018-04-07T18:17:10.744Z,2.43
2018-04-07T18:19:38.278Z,2.40
2018-04-07T18:22:05.824Z,2.43
2018-04-07T18:24:33.344Z,2.63
2018-04-07T18:27:00.896Z,2.20
2018-04-07T18:29:28.421Z,2.30
2018-04-07T18:31:55.961Z,2.43
2018-04-07T18:34:23.485Z,1.97
2018-04-07T18:36:51.022Z,2.03
2018-04-07T18:39:18.561Z,2.27
2018-04-07T18:41:46.145Z,2.57
2018-04-07T18:44:13.641Z,1.97
2018-04-07T18:46:41.177Z,2.13
2018-04-07T18:49:08.696Z,2.27
2018-04-07T18:51:36.308Z,1.97
2018-04-07T18:54:03.846Z,2.07
2018-04-07T18:56:31.380Z,2.03
2018-04-07T18:58:59.193Z,1.90
2018-04-07T19:01:27.504Z,2.07
2018-04-07T19:03:55.025Z,2.03
2018-04-07T19:06:23.456Z,1.90
2018-04-07T19:08:51.005Z,2.10
2018-04-07T19:11:18.554Z,2.10
2018-04-07T19:13:46.081Z,3.00
2018-04-07T19:16:14.400Z,4.60
2018-04-07T19:18:41.921Z,8.60
2018-04-07T19:21:10.262Z,9.20
2018-04-07T19:23:37.894Z,5.57
2018-04-07T19:26:05.501Z,7.53
2018-04-07T19:28:33.865Z,6.40
2018-04-07T19:31:01.440Z,6.60
2018-04-07T19:33:29.754Z,6.87
2018-04-07T19:35:57.389Z,6.67
2018-04-07T19:38:25.681Z,7.33
2018-04-07T19:40:53.349Z,6.67
2018-04-07T19:43:20.918Z,6.17
2018-04-07T19:45:48.653Z,7.30
2018-04-07T19:48:16.263Z,7.23
2018-04-07T19:50:44.286Z,5.47
2018-04-07T19:53:11.821Z,5.50
2018-04-07T19:55:40.165Z,6.20
2018-04-07T19:58:07.723Z,6.60
2018-04-07T20:00:35.376Z,6.87
2018-04-07T20:03:02.918Z,6.67
2018-04-07T20:05:30.507Z,8.60
2018-04-07T20:07:58.057Z,4.47
2018-04-07T20:10:25.808Z,4.77
2018-04-07T20:12:53.405Z,5.23
2018-04-07T20:15:20.924Z,4.40
2018-04-07T20:17:48.469Z,4.40
2018-04-07T20:20:16.809Z,4.50
2018-04-07T20:22:44.333Z,22.27
2018-04-07T20:25:11.887Z,7.50
2018-04-07T20:27:39.471Z,12.37
2018-04-07T20:30:07.796Z,6.97
2018-04-07T20:32:35.446Z,5.50
2018-04-07T20:35:02.973Z,4.23
2018-04-07T20:37:30.594Z,3.20
2018-04-07T20:39:58.126Z,2.97
2018-04-07T20:42:27.134Z,2.70
2018-04-07T20:44:54.658Z,3.00
2018-04-07T20:47:24.096Z,3.43
2018-04-07T20:49:51.622Z,3.83
2018-04-07T20:52:19.921Z,2.83
2018-04-07T20:54:47.445Z,3.40
2018-04-07T20:57:15.757Z,3.20
2018-04-07T20:59:43.272Z,3.20
2018-04-07T21:02:11.586Z,3.03
2018-04-07T21:04:39.104Z,3.10
2018-04-07T21:07:06.641Z,2.83
2018-04-07T21:09:34.162Z,3.47
2018-04-07T21:15:06.590Z,4.60
2018-04-07T21:17:34.124Z,4.33
2018-04-07T21:20:01.650Z,4.23
2018-04-07T21:22:29.197Z,4.27
2018-04-07T21:24:57.473Z,4.20
2018-04-07T21:27:25.778Z,3.60
2018-04-07T21:29:53.297Z,4.07
2018-04-07T21:32:20.844Z,3.43
2018-04-07T21:34:48.365Z,4.63
2018-04-07T21:37:15.909Z,4.87
2018-04-07T21:39:43.425Z,4.53
2018-04-07T21:42:10.979Z,4.53
2018-04-07T21:44:38.505Z,4.70
2018-04-07T21:47:06.040Z,4.37
2018-04-07T21:49:33.560Z,4.57
2018-04-07T21:52:01.104Z,4.10
2018-04-07T21:54:28.629Z,4.07
2018-04-07T21:56:56.185Z,3.20
2018-04-07T21:59:24.478Z,3.60
2018-04-07T22:01:52.030Z,3.70
2018-04-07T22:04:19.559Z,4.83
2018-04-07T22:06:47.104Z,3.77
2018-04-07T22:09:15.388Z,3.80
2018-04-07T22:11:42.941Z,3.53
2018-04-07T22:14:11.229Z,4.23
2018-04-07T22:16:38.772Z,5.60
2018-04-07T22:19:07.066Z,6.03
2018-04-07T22:21:34.623Z,5.50
2018-04-07T22:24:02.145Z,5.57
2018-04-07T22:26:29.686Z,4.87
2018-04-07T22:28:57.223Z,5.27
2018-04-07T22:31:24.764Z,7.67
2018-04-07T22:33:52.299Z,7.87
2018-04-07T22:36:20.624Z,6.70
2018-04-07T22:38:48.145Z,7.57
2018-04-07T22:41:15.682Z,7.70
2018-04-07T22:43:44.013Z,6.50
2018-04-07T22:46:11.533Z,6.63
2018-04-07T22:48:39.302Z,5.50
2018-04-07T22:51:06.829Z,5.73
2018-04-07T22:53:34.373Z,6.07
2018-04-07T22:56:02.126Z,6.37
2018-04-07T22:58:29.661Z,6.97
2018-04-07T23:00:57.186Z,6.63
2018-04-07T23:03:25.509Z,6.87
2018-04-07T23:05:53.033Z,5.70
2018-04-07T23:08:20.564Z,6.13
2018-04-07T23:10:48.853Z,6.13
2018-04-07T23:13:17.158Z,5.63
2018-04-07T23:15:44.684Z,5.87
2018-04-07T23:18:12.990Z,5.60
2018-04-07T23:20:40.519Z,5.93
2018-04-07T23:23:08.824Z,5.93
2018-04-07T23:25:36.357Z,6.37
2018-04-07T23:28:04.660Z,6.70
2018-04-07T23:30:32.179Z,6.30
2018-04-07T23:33:00.502Z,6.63
2018-04-07T23:35:28.016Z,6.63
2018-04-07T23:37:56.332Z,6.70
2018-04-07T23:40:23.852Z,7.03
2018-04-07T23:42:52.157Z,6.20
2018-04-07T23:45:19.686Z,6.17
2018-04-07T23:47:47.996Z,7.20
2018-04-07T23:50:15.512Z,6.73
2018-04-07T23:52:43.822Z,6.77
2018-04-07T23:55:11.349Z,6.23
2018-04-07T23:57:39.651Z,6.50
